sensor_id;sensor_type;location;lat;lon;timestamp;P1;durP1;ratioP1;P2;durP2;ratioP2
23117;SDS011;11728;50.624;6.014;2022-08-11T00:00:42;3.70;;;2.53;;
23117;SDS011;11728;50.624;6.014;2022-08-11T00:05:46;9.98;;;2.83;;
23117;SDS011;11728;50.624;6.014;2022-08-11T00:10:54;4.72;;;2.78;;
23117;SDS011;11728;50.624;6.014;2022-08-11T00:15:56;5.03;;;2.75;;
23117;SDS011;11728;50.624;6.014;2022-08-11T00:20:58;7.57;;;2.65;;
23117;SDS011;11728;50.624;6.014;2022-08-11T00:25:59;5.32;;;2.38;;
23117;SDS011;11728;50.624;6.014;2022-08-11T00:31:02;3.58;;;2.25;;
23117;SDS011;11728;50.624;6.014;2022-08-11T00:36:05;6.07;;;2.25;;
23117;SDS011;11728;50.624;6.014;2022-08-11T01:03:57;6.22;;;2.20;;
23117;SDS011;11728;50.624;6.014;2022-08-11T01:19:34;4.85;;;2.40;;
23117;SDS011;11728;50.624;6.014;2022-08-11T01:36:04;4.72;;;2.50;;
23117;SDS011;11728;50.624;6.014;2022-08-11T01:46:21;4.05;;;2.47;;
23117;SDS011;11728;50.624;6.014;2022-08-11T01:51:45;8.25;;;2.70;;
23117;SDS011;11728;50.624;6.014;2022-08-11T02:02:05;8.00;;;2.38;;
23117;SDS011;11728;50.624;6.014;2022-08-11T02:12:58;5.97;;;2.55;;
23117;SDS011;11728;50.624;6.014;2022-08-11T02:18:22;6.03;;;2.58;;
23117;SDS011;11728;50.624;6.014;2022-08-11T02:28:57;4.22;;;2.95;;
23117;SDS011;11728;50.624;6.014;2022-08-11T02:39:53;3.53;;;2.30;;
23117;SDS011;11728;50.624;6.014;2022-08-11T02:50:11;4.78;;;2.50;;
23117;SDS011;11728;50.624;6.014;2022-08-11T03:00:54;6.03;;;2.80;;
23117;SDS011;11728;50.624;6.014;2022-08-11T03:11:10;8.13;;;2.70;;
23117;SDS011;11728;50.624;6.014;2022-08-11T03:17:40;4.23;;;2.50;;
23117;SDS011;11728;50.624;6.014;2022-08-11T03:32:31;4.78;;;2.40;;
23117;SDS011;11728;50.624;6.014;2022-08-11T03:42:58;4.10;;;2.50;;
23117;SDS011;11728;50.624;6.014;2022-08-11T03:53:43;5.32;;;2.50;;
23117;SDS011;11728;50.624;6.014;2022-08-11T04:20:52;7.78;;;2.80;;
23117;SDS011;11728;50.624;6.014;2022-08-11T04:36:52;5.60;;;2.70;;
23117;SDS011;11728;50.624;6.014;2022-08-11T04:59:26;10.88;;;3.30;;
23117;SDS011;11728;50.624;6.014;2022-08-11T05:05:02;6.75;;;3.65;;
23117;SDS011;11728;50.624;6.014;2022-08-11T05:15:55;6.45;;;3.00;;
23117;SDS011;11728;50.624;6.014;2022-08-11T05:21:16;7.78;;;3.05;;
23117;SDS011;11728;50.624;6.014;2022-08-11T05:26:44;6.05;;;3.20;;
23117;SDS011;11728;50.624;6.014;2022-08-11T05:32:05;6.25;;;2.70;;
23117;SDS011;11728;50.624;6.014;2022-08-11T05:42:33;8.80;;;2.63;;
23117;SDS011;11728;50.624;6.014;2022-08-11T05:48:06;6.72;;;2.65;;
23117;SDS011;11728;50.624;6.014;2022-08-11T05:53:25;10.65;;;3.00;;
23117;SDS011;11728;50.624;6.014;2022-08-11T05:58:48;4.97;;;2.70;;
23117;SDS011;11728;50.624;6.014;2022-08-11T06:03:51;4.07;;;2.17;;
23117;SDS011;11728;50.624;6.014;2022-08-11T06:09:12;11.68;;;2.17;;
23117;SDS011;11728;50.624;6.014;2022-08-11T06:14:13;9.50;;;2.50;;
23117;SDS011;11728;50.624;6.014;2022-08-11T06:19:14;4.65;;;1.98;;
23117;SDS011;11728;50.624;6.014;2022-08-11T06:24:16;5.95;;;2.25;;
23117;SDS011;11728;50.624;6.014;2022-08-11T06:29:18;5.38;;;2.28;;
23117;SDS011;11728;50.624;6.014;2022-08-11T06:34:30;6.00;;;2.67;;
23117;SDS011;11728;50.624;6.014;2022-08-11T06:39:36;4.85;;;2.33;;
23117;SDS011;11728;50.624;6.014;2022-08-11T06:45:06;7.72;;;2.50;;
23117;SDS011;11728;50.624;6.014;2022-08-11T06:50:16;7.65;;;2.28;;
23117;SDS011;11728;50.624;6.014;2022-08-11T06:55:38;4.03;;;1.77;;
23117;SDS011;11728;50.624;6.014;2022-08-11T07:01:04;5.55;;;2.15;;
23117;SDS011;11728;50.624;6.014;2022-08-11T07:06:19;5.00;;;2.20;;
23117;SDS011;11728;50.624;6.014;2022-08-11T07:17:21;7.57;;;1.50;;
23117;SDS011;11728;50.624;6.014;2022-08-11T07:22:22;4.35;;;1.77;;
23117;SDS011;11728;50.624;6.014;2022-08-11T07:27:45;4.85;;;1.83;;
23117;SDS011;11728;50.624;6.014;2022-08-11T07:33:07;6.70;;;1.95;;
23117;SDS011;11728;50.624;6.014;2022-08-11T07:38:11;4.88;;;1.80;;
23117;SDS011;11728;50.624;6.014;2022-08-11T07:43:20;7.60;;;2.28;;
23117;SDS011;11728;50.624;6.014;2022-08-11T07:48:21;5.63;;;1.95;;
23117;SDS011;11728;50.624;6.014;2022-08-11T07:53:40;4.15;;;2.03;;
23117;SDS011;11728;50.624;6.014;2022-08-11T07:58:41;3.92;;;2.00;;
23117;SDS011;11728;50.624;6.014;2022-08-11T08:04:00;4.25;;;2.00;;
23117;SDS011;11728;50.624;6.014;2022-08-11T08:09:20;5.05;;;1.85;;
23117;SDS011;11728;50.624;6.014;2022-08-11T08:14:40;3.85;;;2.03;;
23117;SDS011;11728;50.624;6.014;2022-08-11T08:20:00;3.17;;;2.03;;
23117;SDS011;11728;50.624;6.014;2022-08-11T08:25:03;6.47;;;1.80;;
23117;SDS011;11728;50.624;6.014;2022-08-11T08:30:05;5.63;;;2.05;;
23117;SDS011;11728;50.624;6.014;2022-08-11T08:35:24;6.30;;;1.70;;
23117;SDS011;11728;50.624;6.014;2022-08-11T08:40:25;3.05;;;1.73;;
23117;SDS011;11728;50.624;6.014;2022-08-11T08:45:26;3.55;;;1.60;;
23117;SDS011;11728;50.624;6.014;2022-08-11T08:50:32;4.50;;;1.77;;
23117;SDS011;11728;50.624;6.014;2022-08-11T08:55:54;2.85;;;1.73;;
23117;SDS011;11728;50.624;6.014;2022-08-11T09:00:57;2.85;;;1.77;;
23117;SDS011;11728;50.624;6.014;2022-08-11T09:05:59;5.72;;;2.03;;
23117;SDS011;11728;50.624;6.014;2022-08-11T09:11:01;5.82;;;1.95;;
23117;SDS011;11728;50.624;6.014;2022-08-11T09:16:22;4.25;;;1.77;;
23117;SDS011;11728;50.624;6.014;2022-08-11T09:21:23;3.72;;;1.75;;
23117;SDS011;11728;50.624;6.014;2022-08-11T09:26:24;3.85;;;1.90;;
23117;SDS011;11728;50.624;6.014;2022-08-11T09:31:43;5.20;;;2.10;;
23117;SDS011;11728;50.624;6.014;2022-08-11T09:36:45;4.88;;;1.65;;
23117;SDS011;11728;50.624;6.014;2022-08-11T09:42:04;2.50;;;1.67;;
23117;SDS011;11728;50.624;6.014;2022-08-11T09:47:06;3.97;;;1.98;;
23117;SDS011;11728;50.624;6.014;2022-08-11T09:52:14;7.50;;;1.90;;
23117;SDS011;11728;50.624;6.014;2022-08-11T09:57:21;4.40;;;1.98;;
23117;SDS011;11728;50.624;6.014;2022-08-11T10:02:47;6.68;;;1.73;;
23117;SDS011;11728;50.624;6.014;2022-08-11T10:07:49;2.65;;;1.75;;
23117;SDS011;11728;50.624;6.014;2022-08-11T10:13:02;3.40;;;1.90;;
23117;SDS011;11728;50.624;6.014;2022-08-11T10:18:06;5.78;;;1.85;;
23117;SDS011;11728;50.624;6.014;2022-08-11T10:23:29;4.97;;;1.98;;
23117;SDS011;11728;50.624;6.014;2022-08-11T10:28:51;4.43;;;2.38;;
23117;SDS011;11728;50.624;6.014;2022-08-11T10:33:52;7.55;;;2.25;;
23117;SDS011;11728;50.624;6.014;2022-08-11T10:39:00;2.85;;;1.75;;
23117;SDS011;11728;50.624;6.014;2022-08-11T10:44:03;4.25;;;1.65;;
23117;SDS011;11728;50.624;6.014;2022-08-11T10:49:06;4.00;;;1.70;;
23117;SDS011;11728;50.624;6.014;2022-08-11T10:54:08;5.20;;;1.88;;
23117;SDS011;11728;50.624;6.014;2022-08-11T10:59:28;3.22;;;1.70;;
23117;SDS011;11728;50.624;6.014;2022-08-11T11:04:37;6.03;;;1.80;;
23117;SDS011;11728;50.624;6.014;2022-08-11T11:09:53;6.28;;;1.98;;
23117;SDS011;11728;50.624;6.014;2022-08-11T11:14:57;4.32;;;1.60;;
23117;SDS011;11728;50.624;6.014;2022-08-11T11:20:32;8.50;;;1.60;;
23117;SDS011;11728;50.624;6.014;2022-08-11T11:31:17;4.22;;;1.80;;
23117;SDS011;11728;50.624;6.014;2022-08-11T11:36:44;5.25;;;1.85;;
23117;SDS011;11728;50.624;6.014;2022-08-11T11:41:48;4.57;;;1.67;;
23117;SDS011;11728;50.624;6.014;2022-08-11T11:46:51;5.97;;;2.25;;
23117;SDS011;11728;50.624;6.014;2022-08-11T11:51:52;4.97;;;1.80;;
23117;SDS011;11728;50.624;6.014;2022-08-11T11:56:56;6.57;;;1.80;;
23117;SDS011;11728;50.624;6.014;2022-08-11T12:02:19;6.10;;;1.90;;
23117;SDS011;11728;50.624;6.014;2022-08-11T12:07:20;5.03;;;1.90;;
23117;SDS011;11728;50.624;6.014;2022-08-11T12:12:39;7.43;;;1.83;;
23117;SDS011;11728;50.624;6.014;2022-08-11T12:17:58;4.43;;;1.70;;
23117;SDS011;11728;50.624;6.014;2022-08-11T12:22:59;9.48;;;1.90;;
23117;SDS011;11728;50.624;6.014;2022-08-11T12:28:19;5.07;;;1.80;;
23117;SDS011;11728;50.624;6.014;2022-08-11T12:33:23;6.07;;;1.83;;
23117;SDS011;11728;50.624;6.014;2022-08-11T12:38:25;5.55;;;1.65;;
23117;SDS011;11728;50.624;6.014;2022-08-11T12:43:27;3.85;;;1.73;;
23117;SDS011;11728;50.624;6.014;2022-08-11T12:48:54;4.75;;;1.77;;
23117;SDS011;11728;50.624;6.014;2022-08-11T12:54:16;5.43;;;1.73;;
23117;SDS011;11728;50.624;6.014;2022-08-11T12:59:24;4.05;;;1.90;;
23117;SDS011;11728;50.624;6.014;2022-08-11T13:04:44;4.18;;;1.52;;
23117;SDS011;11728;50.624;6.014;2022-08-11T13:10:01;4.07;;;1.80;;
23117;SDS011;11728;50.624;6.014;2022-08-11T13:15:03;3.83;;;1.98;;
23117;SDS011;11728;50.624;6.014;2022-08-11T13:20:04;4.82;;;1.85;;
23117;SDS011;11728;50.624;6.014;2022-08-11T13:25:08;6.35;;;1.80;;
23117;SDS011;11728;50.624;6.014;2022-08-11T13:30:09;7.65;;;2.10;;
23117;SDS011;11728;50.624;6.014;2022-08-11T13:35:29;5.55;;;2.00;;
23117;SDS011;11728;50.624;6.014;2022-08-11T13:40:31;2.58;;;1.50;;
23117;SDS011;11728;50.624;6.014;2022-08-11T13:45:32;4.28;;;1.80;;
23117;SDS011;11728;50.624;6.014;2022-08-11T13:50:35;3.25;;;1.90;;
23117;SDS011;11728;50.624;6.014;2022-08-11T13:55:56;5.55;;;1.52;;
23117;SDS011;11728;50.624;6.014;2022-08-11T14:00:59;2.60;;;1.65;;
23117;SDS011;11728;50.624;6.014;2022-08-11T14:05:59;4.85;;;1.75;;
23117;SDS011;11728;50.624;6.014;2022-08-11T14:11:03;5.63;;;1.77;;
23117;SDS011;11728;50.624;6.014;2022-08-11T14:16:25;2.95;;;1.80;;
23117;SDS011;11728;50.624;6.014;2022-08-11T14:21:32;4.15;;;1.73;;
23117;SDS011;11728;50.624;6.014;2022-08-11T14:26:54;3.92;;;2.00;;
23117;SDS011;11728;50.624;6.014;2022-08-11T14:31:56;5.82;;;2.22;;
23117;SDS011;11728;50.624;6.014;2022-08-11T14:37:08;3.60;;;1.70;;
23117;SDS011;11728;50.624;6.014;2022-08-11T14:42:12;6.88;;;1.90;;
23117;SDS011;11728;50.624;6.014;2022-08-11T14:47:34;8.80;;;2.13;;
23117;SDS011;11728;50.624;6.014;2022-08-11T14:52:36;6.97;;;1.83;;
23117;SDS011;11728;50.624;6.014;2022-08-11T14:57:39;4.72;;;2.00;;
23117;SDS011;11728;50.624;6.014;2022-08-11T15:02:41;5.10;;;1.95;;
23117;SDS011;11728;50.624;6.014;2022-08-11T15:08:01;5.72;;;1.83;;
23117;SDS011;11728;50.624;6.014;2022-08-11T15:13:02;4.80;;;2.00;;
23117;SDS011;11728;50.624;6.014;2022-08-11T15:18:06;5.95;;;1.92;;
23117;SDS011;11728;50.624;6.014;2022-08-11T15:33:53;6.65;;;2.22;;
23117;SDS011;11728;50.624;6.014;2022-08-11T15:39:24;7.35;;;2.17;;
23117;SDS011;11728;50.624;6.014;2022-08-11T15:44:32;7.90;;;1.80;;
23117;SDS011;11728;50.624;6.014;2022-08-11T15:50:00;4.33;;;1.80;;
23117;SDS011;11728;50.624;6.014;2022-08-11T15:55:05;6.65;;;1.95;;
23117;SDS011;11728;50.624;6.014;2022-08-11T16:00:07;5.07;;;2.10;;
23117;SDS011;11728;50.624;6.014;2022-08-11T16:05:26;4.07;;;2.10;;
23117;SDS011;11728;50.624;6.014;2022-08-11T16:10:27;11.40;;;2.45;;
23117;SDS011;11728;50.624;6.014;2022-08-11T16:15:29;4.82;;;1.92;;
23117;SDS011;11728;50.624;6.014;2022-08-11T16:20:50;6.10;;;2.30;;
23117;SDS011;11728;50.624;6.014;2022-08-11T16:25:54;5.82;;;2.13;;
23117;SDS011;11728;50.624;6.014;2022-08-11T16:30:57;6.50;;;2.10;;
23117;SDS011;11728;50.624;6.014;2022-08-11T16:35:58;7.28;;;2.00;;
23117;SDS011;11728;50.624;6.014;2022-08-11T16:41:20;7.05;;;2.10;;
23117;SDS011;11728;50.624;6.014;2022-08-11T16:46:41;6.10;;;2.10;;
23117;SDS011;11728;50.624;6.014;2022-08-11T16:51:58;6.72;;;2.22;;
23117;SDS011;11728;50.624;6.014;2022-08-11T16:57:14;6.00;;;2.05;;
23117;SDS011;11728;50.624;6.014;2022-08-11T17:02:36;4.97;;;2.40;;
23117;SDS011;11728;50.624;6.014;2022-08-11T17:08:00;5.75;;;2.30;;
23117;SDS011;11728;50.624;6.014;2022-08-11T17:13:25;6.80;;;2.50;;
23117;SDS011;11728;50.624;6.014;2022-08-11T17:18:43;7.07;;;2.80;;
23117;SDS011;11728;50.624;6.014;2022-08-11T17:23:53;5.50;;;2.00;;
23117;SDS011;11728;50.624;6.014;2022-08-11T17:28:58;4.97;;;2.85;;
23117;SDS011;11728;50.624;6.014;2022-08-11T17:34:01;5.40;;;3.35;;
23117;SDS011;11728;50.624;6.014;2022-08-11T17:39:22;5.55;;;2.70;;
23117;SDS011;11728;50.624;6.014;2022-08-11T17:44:28;5.23;;;2.27;;
23117;SDS011;11728;50.624;6.014;2022-08-11T17:49:49;5.05;;;2.13;;
23117;SDS011;11728;50.624;6.014;2022-08-11T17:54:51;3.95;;;2.67;;
23117;SDS011;11728;50.624;6.014;2022-08-11T18:00:12;5.43;;;2.63;;
23117;SDS011;11728;50.624;6.014;2022-08-11T18:05:14;4.93;;;1.80;;
23117;SDS011;11728;50.624;6.014;2022-08-11T18:10:17;5.65;;;2.10;;
23117;SDS011;11728;50.624;6.014;2022-08-11T18:15:37;6.05;;;1.92;;
23117;SDS011;11728;50.624;6.014;2022-08-11T18:20:58;5.43;;;2.10;;
23117;SDS011;11728;50.624;6.014;2022-08-11T18:26:18;6.20;;;2.70;;
23117;SDS011;11728;50.624;6.014;2022-08-11T18:31:45;5.07;;;2.30;;
23117;SDS011;11728;50.624;6.014;2022-08-11T18:37:08;5.13;;;2.45;;
23117;SDS011;11728;50.624;6.014;2022-08-11T18:42:30;6.90;;;2.25;;
23117;SDS011;11728;50.624;6.014;2022-08-11T18:47:51;6.95;;;2.67;;
23117;SDS011;11728;50.624;6.014;2022-08-11T18:53:16;5.57;;;2.63;;
23117;SDS011;11728;50.624;6.014;2022-08-11T18:58:36;3.92;;;2.20;;
23117;SDS011;11728;50.624;6.014;2022-08-11T19:04:02;6.90;;;2.70;;
23117;SDS011;11728;50.624;6.014;2022-08-11T19:09:23;4.55;;;2.13;;
23117;SDS011;11728;50.624;6.014;2022-08-11T19:14:44;3.88;;;2.33;;
23117;SDS011;11728;50.624;6.014;2022-08-11T19:20:09;8.15;;;2.60;;
23117;SDS011;11728;50.624;6.014;2022-08-11T19:25:30;5.20;;;2.50;;
23117;SDS011;11728;50.624;6.014;2022-08-11T19:30:51;5.65;;;2.70;;
23117;SDS011;11728;50.624;6.014;2022-08-11T19:36:12;8.27;;;2.60;;
23117;SDS011;11728;50.624;6.014;2022-08-11T19:41:32;6.40;;;2.95;;
23117;SDS011;11728;50.624;6.014;2022-08-11T19:46:52;6.47;;;2.63;;
23117;SDS011;11728;50.624;6.014;2022-08-11T19:52:13;7.28;;;2.50;;
23117;SDS011;11728;50.624;6.014;2022-08-11T19:57:33;5.90;;;2.55;;
23117;SDS011;11728;50.624;6.014;2022-08-11T20:02:55;5.28;;;2.45;;
23117;SDS011;11728;50.624;6.014;2022-08-11T20:08:16;5.45;;;2.28;;
23117;SDS011;11728;50.624;6.014;2022-08-11T20:13:37;5.88;;;3.05;;
23117;SDS011;11728;50.624;6.014;2022-08-11T20:19:01;6.00;;;2.80;;
23117;SDS011;11728;50.624;6.014;2022-08-11T20:24:22;5.03;;;2.50;;
23117;SDS011;11728;50.624;6.014;2022-08-11T20:29:42;3.65;;;2.88;;
23117;SDS011;11728;50.624;6.014;2022-08-11T20:35:03;6.80;;;2.83;;
23117;SDS011;11728;50.624;6.014;2022-08-11T20:40:24;5.43;;;3.15;;
23117;SDS011;11728;50.624;6.014;2022-08-11T20:45:43;4.70;;;2.65;;
23117;SDS011;11728;50.624;6.014;2022-08-11T20:51:05;6.93;;;2.80;;
23117;SDS011;11728;50.624;6.014;2022-08-11T20:56:24;7.13;;;2.55;;
23117;SDS011;11728;50.624;6.014;2022-08-11T21:01:46;3.95;;;2.95;;
23117;SDS011;11728;50.624;6.014;2022-08-11T21:07:06;6.07;;;3.05;;
23117;SDS011;11728;50.624;6.014;2022-08-11T21:12:25;6.90;;;2.50;;
23117;SDS011;11728;50.624;6.014;2022-08-11T21:17:47;5.63;;;2.88;;
23117;SDS011;11728;50.624;6.014;2022-08-11T21:23:09;4.88;;;2.80;;
23117;SDS011;11728;50.624;6.014;2022-08-11T21:28:30;7.68;;;2.90;;
23117;SDS011;11728;50.624;6.014;2022-08-11T21:33:50;7.38;;;3.10;;
23117;SDS011;11728;50.624;6.014;2022-08-11T21:39:12;4.50;;;3.28;;
23117;SDS011;11728;50.624;6.014;2022-08-11T21:44:36;6.85;;;3.28;;
23117;SDS011;11728;50.624;6.014;2022-08-11T21:49:56;4.80;;;3.00;;
23117;SDS011;11728;50.624;6.014;2022-08-11T21:55:14;4.83;;;3.17;;
23117;SDS011;11728;50.624;6.014;2022-08-11T22:00:34;5.05;;;3.22;;
23117;SDS011;11728;50.624;6.014;2022-08-11T22:05:55;4.97;;;3.25;;
23117;SDS011;11728;50.624;6.014;2022-08-11T22:11:15;9.45;;;3.10;;
23117;SDS011;11728;50.624;6.014;2022-08-11T22:16:35;6.07;;;3.03;;
23117;SDS011;11728;50.624;6.014;2022-08-11T22:21:55;4.78;;;2.95;;
23117;SDS011;11728;50.624;6.014;2022-08-11T22:27:15;7.57;;;3.15;;
23117;SDS011;11728;50.624;6.014;2022-08-11T22:32:35;7.80;;;3.00;;
23117;SDS011;11728;50.624;6.014;2022-08-11T22:37:55;5.43;;;2.83;;
23117;SDS011;11728;50.624;6.014;2022-08-11T22:43:15;4.40;;;2.85;;
23117;SDS011;11728;50.624;6.014;2022-08-11T22:48:35;5.75;;;3.10;;
23117;SDS011;11728;50.624;6.014;2022-08-11T22:53:55;7.97;;;3.17;;
23117;SDS011;11728;50.624;6.014;2022-08-11T22:59:16;5.30;;;3.35;;
23117;SDS011;11728;50.624;6.014;2022-08-11T23:04:37;6.47;;;3.22;;
23117;SDS011;11728;50.624;6.014;2022-08-11T23:09:57;7.95;;;3.47;;
23117;SDS011;11728;50.624;6.014;2022-08-11T23:15:17;4.78;;;2.80;;
23117;SDS011;11728;50.624;6.014;2022-08-11T23:25:57;9.25;;;3.35;;
23117;SDS011;11728;50.624;6.014;2022-08-11T23:31:20;4.53;;;3.03;;
23117;SDS011;11728;50.624;6.014;2022-08-11T23:36:42;5.07;;;3.25;;
23117;SDS011;11728;50.624;6.014;2022-08-11T23:42:01;7.13;;;2.95;;
23117;SDS011;11728;50.624;6.014;2022-08-11T23:47:21;5.70;;;2.85;;
23117;SDS011;11728;50.624;6.014;2022-08-11T23:52:41;6.10;;;3.47;;
23117;SDS011;11728;50.624;6.014;2022-08-11T23:58:01;7.95;;;3.03;;
